CVF weather

Courchevel Airport
Courcheval, Auvergne-Rhône-Alpes, France

Public forecast

Using degrees Celsius for public forecast. Weather courtesy of forecast.io.

Closest aviation weather report (METAR) to Courchevel Airport

Closest report is Chambéry-Savoie Airport, 34.9 nm (64.6 km) WNW. Retrieved 2020/02/28 04:30 UTC (18 minutes ago):

LFLB 280430Z AUTO 16004KT CAVOK M01/M04 Q1022

Closest aviation forecast (TAF) to Courchevel Airport

Forecast is more than 6 hours old.

Closest forecast is Chambéry-Savoie Airport, 34.9 nm (64.6 km) WNW. Retrieved 2020/02/27 22:27 UTC (6 hours ago):

TAF LFLB 272220Z 2722/2818 CNL